createdAt,value
2018-07-05T00:01:32.372Z,27.40
2018-07-05T00:04:13.041Z,27.30
2018-07-05T00:06:53.349Z,27.10
2018-07-05T00:09:34.041Z,27.10
2018-07-05T00:12:15.509Z,27.10
2018-07-05T00:14:57.384Z,27.10
2018-07-05T00:17:38.187Z,27.10
2018-07-05T00:20:18.874Z,27.10
2018-07-05T00:23:00.611Z,27.10
2018-07-05T00:25:41.271Z,27.10
2018-07-05T00:28:21.974Z,27.20
2018-07-05T00:31:03.558Z,27.40
2018-07-05T00:33:45.257Z,27.40
2018-07-05T00:36:25.822Z,27.40
2018-07-05T00:39:07.522Z,27.30
2018-07-05T00:41:51.148Z,27.20
2018-07-05T00:44:32.495Z,27.20
2018-07-05T00:47:13.400Z,27.20
2018-07-05T00:49:54.963Z,27.10
2018-07-05T00:52:36.070Z,27.10
2018-07-05T00:55:16.933Z,27.10
2018-07-05T00:57:58.538Z,27.10
2018-07-05T01:00:39.397Z,27.10
2018-07-05T01:03:19.978Z,27.00
2018-07-05T01:06:01.768Z,27.10
2018-07-05T01:08:42.717Z,27.10
2018-07-05T01:11:24.423Z,27.20
2018-07-05T01:14:06.311Z,27.20
2018-07-05T01:16:46.675Z,27.10
2018-07-05T01:19:27.359Z,27.10
2018-07-05T01:22:08.824Z,26.90
2018-07-05T01:24:49.315Z,26.90
2018-07-05T01:27:30.152Z,26.80
2018-07-05T01:30:11.226Z,26.80
2018-07-05T01:32:52.688Z,26.70
2018-07-05T01:35:33.691Z,26.60
2018-07-05T01:38:15.248Z,26.60
2018-07-05T01:40:57.269Z,26.50
2018-07-05T01:43:37.972Z,26.50
2018-07-05T01:46:18.801Z,26.50
2018-07-05T01:48:59.788Z,26.50
2018-07-05T01:51:41.656Z,26.60
2018-07-05T01:54:22.439Z,26.60
2018-07-05T01:57:03.935Z,26.50
2018-07-05T01:59:44.429Z,26.50
2018-07-05T02:02:25.862Z,26.50
2018-07-05T02:05:07.542Z,26.40
2018-07-05T02:07:48.108Z,26.40
2018-07-05T02:10:29.424Z,26.30
2018-07-05T02:13:11.634Z,26.20
2018-07-05T02:15:52.083Z,26.10
2018-07-05T02:18:32.752Z,26.10
2018-07-05T02:21:13.454Z,26.10
2018-07-05T02:23:54.904Z,25.90
2018-07-05T02:26:35.867Z,25.90
2018-07-05T02:29:16.856Z,25.80
2018-07-05T02:31:58.246Z,25.60
2018-07-05T02:34:39.111Z,25.60
2018-07-05T02:37:20.797Z,25.40
2018-07-05T02:40:01.693Z,25.40
2018-07-05T02:42:43.574Z,25.40
2018-07-05T02:45:25.276Z,25.30
2018-07-05T02:48:06.713Z,25.10
2018-07-05T02:50:47.327Z,25.10
2018-07-05T02:53:28.211Z,25.10
2018-07-05T02:56:10.599Z,24.90
2018-07-05T02:58:52.797Z,24.70
2018-07-05T03:01:35.447Z,24.70
2018-07-05T03:04:16.564Z,24.70
2018-07-05T03:06:58.573Z,24.70
2018-07-05T03:09:39.541Z,24.60
2018-07-05T03:12:19.918Z,24.60
2018-07-05T03:15:01.152Z,24.50
2018-07-05T03:17:42.068Z,24.50
2018-07-05T03:20:23.782Z,24.40
2018-07-05T03:23:05.262Z,24.30
2018-07-05T03:25:46.974Z,24.30
2018-07-05T03:28:28.122Z,24.30
2018-07-05T03:31:09.538Z,24.20
2018-07-05T03:33:50.353Z,24.20
2018-07-05T03:36:31.722Z,24.10
2018-07-05T03:39:12.708Z,24.20
2018-07-05T03:41:53.279Z,24.20
2018-07-05T03:44:33.941Z,24.10
2018-07-05T03:47:14.428Z,24.10
2018-07-05T03:49:55.107Z,24.00
2018-07-05T03:52:38.113Z,23.80
2018-07-05T03:55:19.824Z,23.70
2018-07-05T03:58:00.673Z,23.70
2018-07-05T04:00:41.463Z,23.70
2018-07-05T04:03:22.753Z,23.50
2018-07-05T04:06:04.834Z,23.40
2018-07-05T04:08:45.781Z,23.40
2018-07-05T04:11:27.081Z,23.30
2018-07-05T04:14:08.503Z,23.10
2018-07-05T04:16:49.897Z,23.10
2018-07-05T04:19:30.028Z,22.90
2018-07-05T04:22:10.773Z,22.90
2018-07-05T04:24:51.463Z,22.80
2018-07-05T04:27:32.703Z,22.70
2018-07-05T04:30:13.281Z,22.70
2018-07-05T04:32:54.100Z,22.70
2018-07-05T04:35:36.768Z,22.70
2018-07-05T04:38:19.278Z,22.70
2018-07-05T04:41:00.007Z,22.70
2018-07-05T04:43:41.485Z,22.80
2018-07-05T04:46:22.533Z,22.80
2018-07-05T04:49:03.978Z,22.70
2018-07-05T04:51:44.431Z,22.50
2018-07-05T04:54:25.407Z,22.50
2018-07-05T04:57:06.828Z,22.80
2018-07-05T04:59:49.054Z,23.00
2018-07-05T05:02:30.228Z,23.00
2018-07-05T05:05:11.572Z,22.90
2018-07-05T05:07:51.967Z,22.70
2018-07-05T05:10:32.807Z,22.60
2018-07-05T05:13:14.065Z,22.60
2018-07-05T05:15:54.550Z,22.60
2018-07-05T05:18:35.397Z,22.60
2018-07-05T05:21:16.407Z,22.60
2018-07-05T05:23:58.173Z,22.60
2018-07-05T05:26:39.140Z,22.60
2018-07-05T05:29:20.503Z,22.60
2018-07-05T05:32:01.222Z,22.50
2018-07-05T05:34:42.185Z,22.50
2018-07-05T05:37:25.760Z,22.40
2018-07-05T05:40:06.597Z,22.40
2018-07-05T05:42:47.993Z,22.30
2018-07-05T05:45:29.582Z,22.30
2018-07-05T05:48:10.809Z,22.30
2018-07-05T05:50:51.499Z,22.30
2018-07-05T05:53:32.361Z,22.20
2018-07-05T05:56:13.344Z,22.30
2018-07-05T05:58:54.311Z,22.30
2018-07-05T06:01:34.995Z,22.20
2018-07-05T06:04:15.770Z,22.20
2018-07-05T06:06:56.060Z,22.20
2018-07-05T06:09:36.813Z,22.00
2018-07-05T06:12:17.885Z,21.90
2018-07-05T06:14:58.552Z,21.90
2018-07-05T06:17:39.619Z,22.00
2018-07-05T06:20:20.590Z,21.90
2018-07-05T06:23:02.294Z,22.00
2018-07-05T06:25:43.803Z,22.00
2018-07-05T06:28:24.744Z,22.00
2018-07-05T06:31:05.488Z,22.00
2018-07-05T06:33:47.121Z,21.90
2018-07-05T06:36:28.311Z,21.90
2018-07-05T06:39:09.408Z,21.90
2018-07-05T06:41:49.992Z,21.80
2018-07-05T06:44:30.505Z,21.80
2018-07-05T06:47:10.523Z,21.80
2018-07-05T06:49:52.211Z,21.70
2018-07-05T06:52:33.918Z,21.70
2018-07-05T06:55:16.991Z,21.70
2018-07-05T06:57:59.060Z,21.70
2018-07-05T07:00:40.101Z,21.70
2018-07-05T07:03:20.278Z,21.70
2018-07-05T07:06:01.752Z,21.60
2018-07-05T07:08:42.224Z,21.60
2018-07-05T07:11:23.890Z,21.60
2018-07-05T07:14:05.017Z,21.60
2018-07-05T07:16:46.723Z,21.60
2018-07-05T07:22:38.568Z,21.50
2018-07-05T07:25:18.938Z,21.50
2018-07-05T07:27:59.476Z,21.40
2018-07-05T07:30:41.220Z,21.30
2018-07-05T07:33:21.762Z,21.30
2018-07-05T07:36:03.155Z,21.30
2018-07-05T07:38:43.979Z,21.30
2018-07-05T07:41:25.521Z,21.30
2018-07-05T07:43:54.567Z,21.30
2018-07-05T07:46:24.161Z,21.30
2018-07-05T07:48:53.979Z,21.30
2018-07-05T07:51:24.210Z,21.30
2018-07-05T07:53:52.910Z,21.30
2018-07-05T07:56:21.556Z,21.20
2018-07-05T07:58:50.295Z,21.20
2018-07-05T08:01:19.042Z,21.20
2018-07-05T08:03:48.543Z,21.10
2018-07-05T08:06:17.656Z,21.10
2018-07-05T08:08:46.871Z,21.00
2018-07-05T08:11:15.782Z,21.00
2018-07-05T08:13:44.504Z,21.00
2018-07-05T08:16:14.272Z,21.00
2018-07-05T08:18:43.100Z,21.00
2018-07-05T08:21:11.689Z,20.90
2018-07-05T08:23:40.454Z,20.90
2018-07-05T08:26:09.615Z,20.90
2018-07-05T08:28:38.322Z,20.90
2018-07-05T08:31:06.939Z,20.90
2018-07-05T08:33:35.530Z,20.90
2018-07-05T08:36:04.229Z,20.90
2018-07-05T08:38:33.037Z,20.90
2018-07-05T08:41:02.808Z,20.90
2018-07-05T08:43:31.600Z,20.80
2018-07-05T08:46:01.136Z,20.80
2018-07-05T08:48:29.839Z,20.80
2018-07-05T08:50:58.467Z,20.70
2018-07-05T08:53:27.160Z,20.80
2018-07-05T08:55:56.152Z,20.80
2018-07-05T08:58:24.950Z,20.70
2018-07-05T09:00:53.849Z,20.70
2018-07-05T09:03:22.494Z,20.70
2018-07-05T09:05:51.230Z,20.70
2018-07-05T09:08:19.931Z,20.50
2018-07-05T09:10:48.876Z,20.50
2018-07-05T09:13:19.692Z,20.50
2018-07-05T09:15:48.443Z,20.50
2018-07-05T09:18:18.274Z,20.50
2018-07-05T09:20:47.130Z,20.40
2018-07-05T09:23:15.783Z,20.40
2018-07-05T09:25:44.882Z,20.40
2018-07-05T09:28:13.393Z,20.30
2018-07-05T09:30:42.183Z,20.30
2018-07-05T09:33:11.289Z,20.20
2018-07-05T09:35:40.463Z,20.20
2018-07-05T09:38:09.776Z,20.20
2018-07-05T09:40:39.169Z,20.10
2018-07-05T09:43:08.877Z,20.20
2018-07-05T09:45:37.566Z,20.10
2018-07-05T09:48:06.284Z,20.10
2018-07-05T09:50:34.962Z,20.10
2018-07-05T09:53:04.290Z,20.00
2018-07-05T09:55:32.544Z,19.90
2018-07-05T09:58:01.318Z,19.90
2018-07-05T10:00:31.407Z,19.90
2018-07-05T10:03:00.027Z,20.00
2018-07-05T10:05:28.480Z,20.00
2018-07-05T10:07:57.268Z,19.90
2018-07-05T10:10:25.991Z,19.90
2018-07-05T10:12:54.460Z,19.90
2018-07-05T10:15:23.255Z,20.00
2018-07-05T10:17:52.016Z,19.90
2018-07-05T10:20:20.652Z,20.00
2018-07-05T10:22:49.384Z,20.00
2018-07-05T10:25:18.984Z,20.00
2018-07-05T10:27:47.787Z,20.00
2018-07-05T10:30:29.030Z,20.00
2018-07-05T10:33:09.999Z,20.00
2018-07-05T10:35:38.525Z,20.00
2018-07-05T10:38:07.327Z,20.00
2018-07-05T10:40:48.003Z,20.00
2018-07-05T10:43:28.633Z,20.10
2018-07-05T10:46:11.244Z,20.10
2018-07-05T10:48:52.236Z,20.00
2018-07-05T10:51:33.217Z,19.90
2018-07-05T10:54:14.822Z,19.80
2018-07-05T10:56:55.800Z,19.80
2018-07-05T10:59:36.503Z,19.80
2018-07-05T11:02:18.739Z,19.70
2018-07-05T11:04:59.608Z,19.70
2018-07-05T11:07:41.547Z,19.60
2018-07-05T11:10:22.490Z,19.60
2018-07-05T11:13:04.012Z,19.60
2018-07-05T11:15:44.746Z,19.60
2018-07-05T11:18:26.179Z,19.50
2018-07-05T11:21:06.735Z,19.50
2018-07-05T11:23:47.662Z,19.50
2018-07-05T11:26:29.134Z,19.50
2018-07-05T11:29:09.684Z,19.40
2018-07-05T11:31:51.414Z,19.40
2018-07-05T11:34:32.368Z,19.40
2018-07-05T11:37:13.117Z,19.40
2018-07-05T11:39:53.861Z,19.40
2018-07-05T11:42:35.036Z,19.40
2018-07-05T11:45:15.564Z,19.40
2018-07-05T11:47:56.481Z,19.40
2018-07-05T11:50:37.391Z,19.40
2018-07-05T11:53:18.995Z,19.30
2018-07-05T11:56:00.283Z,19.30
2018-07-05T11:58:41.164Z,19.40
2018-07-05T12:01:21.612Z,19.40
2018-07-05T12:04:02.846Z,19.50
2018-07-05T12:06:43.731Z,19.50
2018-07-05T12:09:24.407Z,19.40
2018-07-05T12:12:04.942Z,19.50
2018-07-05T12:14:45.599Z,19.50
2018-07-05T12:17:27.383Z,19.50
2018-07-05T12:20:08.123Z,19.50
2018-07-05T12:22:49.904Z,19.40
2018-07-05T12:25:30.393Z,19.40
2018-07-05T12:28:11.214Z,19.40
2018-07-05T12:30:52.025Z,19.40
2018-07-05T12:33:33.518Z,19.40
2018-07-05T12:36:15.072Z,19.30
2018-07-05T12:38:56.451Z,19.30
2018-07-05T12:41:37.380Z,19.30
2018-07-05T12:44:18.658Z,19.30
2018-07-05T12:46:59.399Z,19.30
2018-07-05T12:49:40.660Z,19.30
2018-07-05T12:52:21.809Z,19.30
2018-07-05T12:55:02.760Z,19.20
2018-07-05T12:57:43.480Z,19.30
2018-07-05T13:00:24.491Z,19.30
2018-07-05T13:03:06.189Z,19.40
2018-07-05T13:05:47.871Z,19.40
2018-07-05T13:08:29.873Z,19.50
2018-07-05T13:11:10.649Z,19.40
2018-07-05T13:13:51.277Z,19.50
2018-07-05T13:16:32.916Z,19.60
2018-07-05T13:19:13.724Z,19.60
2018-07-05T13:21:54.163Z,19.60
2018-07-05T13:24:34.746Z,19.70
2018-07-05T13:27:15.435Z,19.70
2018-07-05T13:29:57.754Z,19.70
2018-07-05T13:32:38.494Z,19.70
2018-07-05T13:35:20.008Z,19.70
2018-07-05T13:38:01.326Z,19.70
2018-07-05T13:40:42.140Z,19.80
2018-07-05T13:43:23.195Z,19.80
2018-07-05T13:46:04.412Z,19.80
2018-07-05T13:48:46.100Z,19.80
2018-07-05T13:51:28.493Z,19.90
2018-07-05T13:54:09.617Z,19.80
2018-07-05T13:56:50.752Z,19.90
2018-07-05T13:59:32.686Z,19.90
2018-07-05T14:02:13.541Z,19.90
2018-07-05T14:04:54.123Z,19.90
2018-07-05T14:07:35.083Z,19.90
2018-07-05T14:10:15.479Z,19.90
2018-07-05T14:12:56.265Z,19.90
2018-07-05T14:15:36.657Z,19.80
2018-07-05T14:18:17.303Z,19.80
2018-07-05T14:20:58.128Z,19.90
2018-07-05T14:23:38.968Z,20.00
2018-07-05T14:26:19.987Z,20.10
2018-07-05T14:29:00.934Z,20.20
2018-07-05T14:31:41.890Z,20.20
2018-07-05T14:34:23.483Z,20.20
2018-07-05T14:37:03.901Z,20.20
2018-07-05T14:39:44.615Z,20.30
2018-07-05T14:42:26.365Z,20.40
2018-07-05T14:45:07.694Z,20.40
2018-07-05T14:47:49.588Z,20.70
2018-07-05T14:50:29.890Z,20.70
2018-07-05T14:53:10.379Z,20.80
2018-07-05T14:55:52.013Z,21.10
2018-07-05T14:58:32.826Z,21.10
2018-07-05T15:01:14.729Z,21.20
2018-07-05T15:03:55.706Z,21.20
2018-07-05T15:06:37.536Z,21.50
2018-07-05T15:09:18.413Z,21.40
2018-07-05T15:11:59.272Z,21.70
2018-07-05T15:14:40.021Z,21.90
2018-07-05T15:17:21.496Z,21.90
2018-07-05T15:20:03.393Z,21.90
2018-07-05T15:22:44.979Z,21.80
2018-07-05T15:25:26.396Z,21.80
2018-07-05T15:28:07.538Z,21.80
2018-07-05T15:30:49.123Z,21.70
2018-07-05T15:33:29.924Z,21.70
2018-07-05T15:36:10.544Z,21.80
2018-07-05T15:38:51.487Z,22.00
2018-07-05T15:41:40.634Z,22.30
2018-07-05T15:44:21.263Z,22.20
2018-07-05T15:47:03.247Z,22.30
2018-07-05T15:49:44.461Z,22.50
2018-07-05T15:52:25.850Z,22.60
2018-07-05T15:55:06.793Z,22.80
2018-07-05T15:57:48.087Z,23.00
2018-07-05T16:00:28.949Z,23.30
2018-07-05T16:03:10.287Z,23.40
2018-07-05T16:05:51.549Z,23.60
2018-07-05T16:08:32.309Z,23.80
2018-07-05T16:11:13.621Z,24.50
2018-07-05T16:13:54.755Z,24.50
2018-07-05T16:16:35.432Z,24.60
2018-07-05T16:19:17.200Z,24.90
2018-07-05T16:21:57.795Z,24.80
2018-07-05T16:24:39.398Z,25.10
2018-07-05T16:27:21.239Z,25.30
2018-07-05T16:30:01.545Z,25.10
2018-07-05T16:32:42.788Z,24.90
2018-07-05T16:35:23.373Z,24.80
2018-07-05T16:38:03.539Z,24.80
2018-07-05T16:40:44.301Z,24.80
2018-07-05T16:43:24.636Z,24.90
2018-07-05T16:46:05.536Z,25.00
2018-07-05T16:48:47.749Z,25.20
2018-07-05T16:51:28.618Z,25.30
2018-07-05T16:54:09.376Z,25.30
2018-07-05T16:56:51.105Z,25.60
2018-07-05T16:59:32.051Z,25.60
2018-07-05T17:02:13.631Z,25.90
2018-07-05T17:04:53.989Z,25.90
2018-07-05T17:07:34.862Z,26.10
2018-07-05T17:10:16.270Z,26.60
2018-07-05T17:12:58.035Z,26.60
2018-07-05T17:15:39.528Z,26.60
2018-07-05T17:18:20.748Z,26.80
2018-07-05T17:21:01.368Z,26.80
2018-07-05T17:23:42.244Z,27.10
2018-07-05T17:26:23.713Z,27.70
2018-07-05T17:29:03.954Z,27.70
2018-07-05T17:31:45.140Z,28.00
2018-07-05T17:34:26.512Z,28.30
2018-07-05T17:37:06.794Z,32.30
2018-07-05T17:39:48.101Z,35.70
2018-07-05T17:42:29.069Z,34.60
2018-07-05T17:45:10.405Z,32.70
2018-07-05T17:47:51.355Z,32.70
2018-07-05T17:50:31.407Z,33.50
2018-07-05T17:53:12.831Z,34.20
2018-07-05T17:55:54.548Z,38.60
2018-07-05T17:58:35.577Z,42.30
2018-07-05T18:01:16.925Z,42.10
2018-07-05T18:03:57.877Z,45.10
2018-07-05T18:06:38.577Z,46.80
2018-07-05T18:09:19.422Z,46.70
2018-07-05T18:12:00.401Z,48.20
2018-07-05T18:14:41.389Z,49.10
2018-07-05T18:17:24.201Z,50.90
2018-07-05T18:20:06.127Z,51.60
2018-07-05T18:22:47.036Z,51.60
2018-07-05T18:25:28.333Z,51.30
2018-07-05T18:28:09.329Z,51.80
2018-07-05T18:30:50.272Z,51.30
2018-07-05T18:33:31.364Z,49.70
2018-07-05T18:36:12.205Z,43.80
2018-07-05T18:38:53.044Z,43.60
2018-07-05T18:41:33.873Z,41.60
2018-07-05T18:44:14.611Z,38.60
2018-07-05T18:46:55.524Z,38.50
2018-07-05T18:49:36.949Z,36.60
2018-07-05T18:52:17.980Z,36.50
2018-07-05T18:54:58.755Z,36.20
2018-07-05T18:57:39.528Z,36.10
2018-07-05T19:00:21.427Z,34.80
2018-07-05T19:03:02.696Z,34.40
2018-07-05T19:05:44.356Z,34.10
2018-07-05T19:08:25.129Z,34.00
2018-07-05T19:11:06.218Z,33.70
2018-07-05T19:13:46.902Z,33.60
2018-07-05T19:16:28.400Z,33.60
2018-07-05T19:19:10.246Z,33.60
2018-07-05T19:21:50.438Z,33.60
2018-07-05T19:24:33.252Z,33.80
2018-07-05T19:27:15.154Z,33.70
2018-07-05T19:29:56.749Z,33.90
2018-07-05T19:32:37.412Z,33.90
2018-07-05T19:35:19.168Z,33.90
2018-07-05T19:38:00.038Z,33.90
2018-07-05T19:40:40.847Z,33.90
2018-07-05T19:43:21.508Z,33.80
2018-07-05T19:46:03.067Z,33.70
2018-07-05T19:48:43.570Z,33.70
2018-07-05T19:51:24.280Z,33.80
2018-07-05T19:54:04.795Z,33.60
2018-07-05T19:56:45.560Z,33.60
2018-07-05T19:59:26.678Z,34.00
2018-07-05T20:02:07.696Z,33.90
2018-07-05T20:04:48.362Z,33.80
2018-07-05T20:07:33.754Z,33.50
2018-07-05T20:10:15.013Z,33.30
2018-07-05T20:12:55.923Z,33.20
2018-07-05T20:15:37.046Z,33.10
2018-07-05T20:18:18.592Z,33.00
2018-07-05T20:20:59.142Z,33.00
2018-07-05T20:23:40.536Z,33.10
2018-07-05T20:26:27.856Z,33.10
2018-07-05T20:29:10.461Z,33.10
2018-07-05T20:31:51.173Z,33.30
2018-07-05T20:34:32.384Z,33.40
2018-07-05T20:37:12.437Z,33.40
2018-07-05T20:39:53.916Z,33.30
2018-07-05T20:42:34.864Z,33.30
2018-07-05T20:45:15.710Z,33.20
2018-07-05T20:47:56.533Z,33.10
2018-07-05T20:50:38.565Z,32.90
2018-07-05T20:53:19.709Z,33.00
2018-07-05T20:56:02.138Z,32.60
2018-07-05T20:58:42.730Z,32.60
2018-07-05T21:01:23.860Z,32.40
2018-07-05T21:04:05.874Z,32.00
2018-07-05T21:06:47.351Z,32.10
2018-07-05T21:09:29.041Z,32.00
2018-07-05T21:12:10.827Z,32.00
2018-07-05T21:14:53.700Z,32.00
2018-07-05T21:17:34.316Z,31.90
2018-07-05T21:20:15.276Z,32.00
2018-07-05T21:22:56.079Z,31.80
2018-07-05T21:25:36.923Z,31.60
2018-07-05T21:28:18.019Z,31.50
2018-07-05T21:30:59.629Z,31.40
2018-07-05T21:33:40.465Z,31.50
2018-07-05T21:36:22.064Z,31.50
2018-07-05T21:39:02.495Z,31.50
2018-07-05T21:41:43.387Z,31.40
2018-07-05T21:44:25.105Z,31.30
2018-07-05T21:47:05.742Z,31.20
2018-07-05T21:49:47.512Z,31.10
2018-07-05T21:52:28.341Z,31.10
2018-07-05T21:55:08.678Z,31.10
2018-07-05T21:57:50.700Z,30.90
2018-07-05T22:00:31.488Z,30.90
2018-07-05T22:03:12.207Z,30.70
2018-07-05T22:05:53.669Z,30.30
2018-07-05T22:08:34.475Z,30.30
2018-07-05T22:11:15.739Z,30.20
2018-07-05T22:13:57.026Z,30.10
2018-07-05T22:16:38.580Z,30.00
2018-07-05T22:22:25.632Z,29.90
2018-07-05T22:25:12.977Z,29.80
2018-07-05T22:27:53.823Z,29.80
2018-07-05T22:33:44.973Z,29.80
2018-07-05T22:36:27.090Z,29.70
2018-07-05T22:39:08.031Z,29.70
2018-07-05T22:41:50.243Z,29.50
2018-07-05T22:44:31.034Z,29.50
2018-07-05T22:47:12.189Z,29.40
2018-07-05T22:49:54.532Z,29.20
2018-07-05T22:52:35.149Z,29.20
2018-07-05T22:55:15.821Z,29.20
2018-07-05T22:57:56.516Z,29.10
2018-07-05T23:00:38.285Z,29.00
2018-07-05T23:03:20.875Z,29.00
2018-07-05T23:06:01.506Z,29.00
2018-07-05T23:08:42.069Z,29.00
2018-07-05T23:11:22.642Z,28.90
2018-07-05T23:14:04.714Z,28.90
2018-07-05T23:16:46.254Z,28.70
2018-07-05T23:19:26.937Z,28.60
2018-07-05T23:22:07.897Z,28.50
2018-07-05T23:24:48.409Z,28.50
2018-07-05T23:27:29.865Z,28.50
2018-07-05T23:30:10.518Z,28.50
2018-07-05T23:32:51.817Z,28.50
2018-07-05T23:35:32.500Z,28.40
2018-07-05T23:38:13.073Z,28.50
2018-07-05T23:40:53.315Z,28.60
2018-07-05T23:43:34.668Z,28.60
2018-07-05T23:46:16.575Z,28.60
2018-07-05T23:48:58.259Z,28.50
2018-07-05T23:51:39.068Z,28.50
2018-07-05T23:54:20.528Z,28.50
2018-07-05T23:57:03.151Z,28.50
2018-07-05T23:59:44.648Z,28.50
